[자연과학대학 홈페이지 주소 변경] science.snu.ac.kr

공지사항 (전체보기)

제목 환태평양대학협회(APRU) 온라인 학생교류 프로그램 홍보
작성자 최은희 등록일 2020.09.03 조회수 45763
파일첨부 disk USFQ Latitude Zero Talks (1).pdf
disk USFQ Stories From Around The World (1).pdf

환태평양대학협회(APRU)에서 주관하는 온라인 학생교류 교과 외 활동 프로그램(Virtual Student Exchange Co-curricular Program) 참가자를 아래와 같이 모집하오니 학부생들의 많은 참여 바랍니다.

 

1. 내 용 : 코로나19 감염증 발생으로 어려워진 교류활동을 보완하고자 세계 각국의 55개 환태평양대학협회(APRU) 회원교 소속 학생들과 교원이 온라인 상에서 다양한 주제로 교류할 수 있도록 하는 플랫폼 개설

 

2. 모집분야 : 교과 외 활동 프로그램 (Co-curricular Program)

  ※서울대학교는 교과 외 활동 프로그램(학점인정X)만 참여하며, VSE Academic Courses는 신청불가

 

3. 지원자격 : 환태평양대학협회 회원교 소속 학부생 (서울대는 1997년부터 APRU 회원으로 활동중)

 

4. 지원방법 : 홈페이지 또는 첨부파일 내 링크로 참가신청

 

   ※홈페이지 링크: https://vse.apru.org/

   ※첨부의 안내문 상 활동 외에도 추가적으로 다양한 활동이 홈페이지에 지속 업로드 될 예정
 

붙임

1. (활동1) Latitude Zero Talks: Explore Galapagos 안내문 1부

2. (활동2) Stories from Around the World 안내문 1부.

 
번호 제목 작성자 조회 등록일
notice [고충상담 코너] 마음의 비타민 관리자 546329 2019.09.04
2228 2021학년도 1학기 글로벌 초우수 장학금(SNU Global Sc... 장선미 8535 2021.06.30
2227 2021년 2학기 삼성꿈장학재단 글로벌 희망장학생 선발 ... 장선미 9595 2021.06.23
2226 2021학년도 2학기 농어촌희망재단 농림축산식품부장학... 장선미 10839 2021.06.23
2225 2021학년도 2학기 현대차 정몽구 글로벌 장학사업 장학... 장선미 11163 2021.06.23
2224 U7+ Worldwide Student Forum 2021 참가학생 모집안내... 최은희 16794 2021.06.16
2223 2021학년도 1학기 코로나19 위기가구 특별근로장학금 ... 장선미 11422 2021.06.11
2222 2021학년도 2학기 등록 일정 안내 고영희 8038 2021.06.11
2221 2021학년도 2학기 삼일문화재단 장학생(박사) 선발 안... 장선미 14228 2021.06.04
2220 2021년 2학기 삼성드림클래스 대학생 멘토 선발 안내... 장선미 6862 2021.06.04
2219 2021학년도 2/4분기 긴급구호장학생 선발 알림... 장선미 8337 2021.06.04
2218 2022-23년도 하버드-옌칭 프로그램 참가자 모집 공고... 최은희 11668 2021.06.01
2217 2021학년도 OK배정장학재단 7기 생활장학생 선발 안내... 장선미 9085 2021.05.28
2216 아시아대학연맹 2021 AUA Overseas Study Program 신청... 최은희 14473 2021.05.27
2215 중국 칭화대학 Schwarzman Scholars 석사과정 장학 프... 장선미 8408 2021.05.27
2214 2021학년도 5급 공채시험 대비 최신이슈 특강 시리즈 ... 관리자 8035 2021.05.26
2213 2022 일본정부(문부과학성) 장학금 연구유학생 모집 관... 장선미 10907 2021.05.24
2212 2021학년도 2학기 국가장학금 1차 신청 안내... 장선미 28585 2021.05.21
2211 2021학년도 2학기 국가근로장학사업 1차 학생신청 안내... 장선미 8307 2021.05.18
2210 2021학년도 2학기 교내장학금 신청 안내 장선미 8003 2021.05.18
2209 [10-10 Project] BCS for Adaptive Intelligence 강연 ... 김효진 21973 2021.05.15
2208 학부생 대상 뇌인지과학과 오픈랩 행사 안내 (2021.05.... 김효진 13658 2021.05.14
2207 2021학년도 국가근로장학사업 하계방학 집중근로 프로... 장선미 8238 2021.05.14
2206 아시아대학연맹 2021 AUA Overseas Study Program 신청... 최은희 10888 2021.05.14
2205 스페인 카탈루냐 테크니오스피링 인더스트리 펠로우십 ... 최은희 9660 2021.05.13
2204 2021학년도 자연과학대학 학부생 연구인턴십 모집 안내... 장선미 5074 2021.05.12
TOP▲